Terminal Aerodrome Forecast
Issued by NWS

Home | Current Version | Previous Version | Graphics & Text | Print | Product List | Glossary On
Versions: 1 2 3 4 5 6 7 8 9 10 11 12 13 14 15 16 17 18 19
349
FTUS43 KGRB 071136
TAFAUW
TAF
KAUW 071136Z 0712/0812 19011G14KT P6SM SCT012 BKN060
      TEMPO 0712/0714 6SM -RASNPL BR BKN012
     FM071400 22010KT P6SM BKN060 OVC090
     FM071800 25009KT P6SM -RASN SCT025 BKN035
     FM072300 26007KT P6SM -SN BKN025
     FM080300 27009KT 5SM -SN BKN015
     FM080600 30010G15KT 3SM -SN BKN010=

USA.gov is the U.S. government's official web portal to all federal, state and local government web resources and services.